Blairsville, Indiana
Current Conditions -  °F | °C
As of 12:54 AM on Thursday 23 Oct 2014 (Local Time) from KEVV Reporting Station
Clear Clear  
Wind Chill: 42°   Ceiling: Unl
Heat Index: 42°   Visibility: 10mi
Dew Point: 39°   Wind: 3mph
Humidity: 89%   Direction: 10°N
Pressure: 30.26"   Gusts: NA
Location:  38.0787°N, 87.7717°W
Report Text: KEVV 230554Z AUTO 01003KT 10SM CLR 06/04 A3026 RMK AO2 SLP246 T00560039 10111 20050 401720050 51003
Loading
Personal Weather Stations






























Interactive Weather Map New forecast layout! Learn more

10-Day Weather Forecast

Advertisements
Track Severe Weather on mobile